Other Surface Observations
Issued by NWS Missoula, MT

Home | Current Version | Previous Version | Text Only | Print | Product List | Glossary On
Versions: 1 2 3 4 5 6 7 8 9 10 11 12 13 14 15 16 17 18 19 20 21 22 23 24 25 26 27 28 29 30 31 32 33 34 35 36 37 38 39 40 41 42 43 44 45 46 47 48 49 50
000
SXUS55 KMSO 302223
OSOMSO
MONTANA AWOS SUMMARY
NATIONAL WEATHER SERVICE MISSOULA MT
423 PM MDT TUE JUN 30 2015

Montana AWOS Reports

LAUREL      |K6S8 302215Z AUTO 32015G20KT 40SM 34/09 A2994 RMK AO1 T03440089
TWIN BRIDGES|K7S1 302215Z AUTO 00000KT 40SM 33/08 A3004 RMK AO1 T03280078
ROUNDUP     |KRPX 302215Z AUTO 30018G24KT 40SM 33/07 A2985 RMK AO1 T03330072




USA.gov is the U.S. government's official web portal to all federal, state and local government web resources and services.